Fort Myers Beach, Florida
Current Conditions -  °F | °C
As of 7:53 AM on Tuesday 21 Oct 2014 (Local Time) from KFMY Reporting Station
Broken Clouds Broken Clouds  
Wind Chill: 73°   Ceiling: 3600
Heat Index: 73°   Visibility: 10mi
Dew Point: 71°   Wind: 0mph
Humidity: 93%   Direction: NA
Pressure: 29.93"   Gusts: NA
Location:  26.45°N, 81.94°W
Report Text: KFMY 211153Z 00000KT 10SM BKN036 BKN044 23/22 A2993 RMK AO2 SLP137 T02280217 10239 20228 53005
Loading
Personal Weather Stations






























Interactive Weather Map
Tropical Storm Tracking
New forecast layout! Learn more

10-Day Weather Forecast

Advertisements
Track Severe Weather on mobile